createdAt,value
2023-04-25T00:01:44.090Z,10.45
2023-04-25T00:04:13.044Z,10.48
2023-04-25T00:06:41.389Z,10.47
2023-04-25T00:09:11.166Z,10.48
2023-04-25T00:11:39.331Z,10.48
2023-04-25T00:14:07.751Z,10.48
2023-04-25T00:16:36.625Z,10.43
2023-04-25T00:19:05.356Z,10.43
2023-04-25T00:21:34.101Z,10.46
2023-04-25T00:24:02.357Z,10.48
2023-04-25T00:26:31.260Z,10.45
2023-04-25T00:28:59.466Z,10.49
2023-04-25T00:31:27.721Z,10.46
2023-04-25T00:33:56.192Z,10.46
2023-04-25T00:36:24.451Z,10.45
2023-04-25T00:38:54.914Z,10.44
2023-04-25T00:41:23.432Z,10.46
2023-04-25T00:43:53.521Z,10.46
2023-04-25T00:46:22.231Z,10.48
2023-04-25T00:48:50.378Z,10.46
2023-04-25T00:51:22.287Z,10.47
2023-04-25T00:53:52.564Z,10.46
2023-04-25T00:56:22.372Z,10.43
2023-04-25T00:58:52.620Z,10.42
2023-04-25T01:01:20.932Z,10.36
2023-04-25T01:03:51.303Z,10.35
2023-04-25T01:06:19.828Z,10.31
2023-04-25T01:08:47.899Z,10.29
2023-04-25T01:11:15.898Z,10.28
2023-04-25T01:13:44.102Z,10.30
2023-04-25T01:16:12.206Z,10.31
2023-04-25T01:18:41.516Z,10.27
2023-04-25T01:21:16.735Z,10.27
2023-04-25T01:23:45.097Z,10.27
2023-04-25T01:26:13.610Z,10.31
2023-04-25T01:28:42.514Z,10.34
2023-04-25T01:31:12.574Z,10.37
2023-04-25T01:33:40.853Z,10.39
2023-04-25T01:36:09.323Z,10.40
2023-04-25T01:38:37.382Z,10.39
2023-04-25T01:41:06.368Z,10.40
2023-04-25T01:43:34.814Z,10.39
2023-04-25T01:46:04.969Z,10.39
2023-04-25T01:48:33.238Z,10.41
2023-04-25T01:51:01.288Z,10.42
2023-04-25T01:53:31.243Z,10.41
2023-04-25T01:55:59.421Z,10.40
2023-04-25T01:58:30.921Z,10.39
2023-04-25T02:01:17.112Z,10.39
2023-04-25T02:03:48.548Z,10.38
2023-04-25T02:06:26.407Z,10.36
2023-04-25T02:08:56.376Z,10.29
2023-04-25T02:11:24.599Z,10.27
2023-04-25T02:14:12.874Z,10.25
2023-04-25T02:17:19.542Z,10.28
2023-04-25T02:19:50.192Z,10.26
2023-04-25T02:22:18.659Z,10.28
2023-04-25T02:24:47.656Z,10.30
2023-04-25T02:27:16.371Z,10.28
2023-04-25T02:29:45.526Z,10.29
2023-04-25T02:32:14.114Z,10.29
2023-04-25T02:34:42.407Z,10.29
2023-04-25T02:37:11.158Z,10.29
2023-04-25T02:39:39.230Z,10.28
2023-04-25T02:42:07.459Z,10.31
2023-04-25T02:44:35.660Z,10.34
2023-04-25T02:47:04.555Z,10.34
2023-04-25T02:49:32.753Z,10.32
2023-04-25T02:52:01.055Z,10.30
2023-04-25T02:54:29.132Z,10.30
2023-04-25T02:56:57.729Z,10.32
2023-04-25T02:59:28.628Z,10.31
2023-04-25T03:01:56.658Z,10.26
2023-04-25T03:04:25.141Z,10.24
2023-04-25T03:06:54.672Z,10.27
2023-04-25T03:09:22.906Z,10.28
2023-04-25T03:11:51.060Z,10.23
2023-04-25T03:14:19.667Z,10.23
2023-04-25T03:16:47.811Z,10.23
2023-04-25T03:19:18.662Z,10.24
2023-04-25T03:21:46.623Z,10.21
2023-04-25T03:24:14.805Z,10.20
2023-04-25T03:26:43.473Z,10.21
2023-04-25T03:29:11.740Z,10.20
2023-04-25T03:31:40.017Z,10.22
2023-04-25T03:34:08.324Z,10.20
2023-04-25T03:36:36.435Z,10.19
2023-04-25T03:39:04.760Z,10.20
2023-04-25T03:41:32.914Z,10.19
2023-04-25T03:44:06.165Z,10.20
2023-04-25T03:46:34.599Z,10.20
2023-04-25T03:49:02.714Z,10.26
2023-04-25T03:51:43.567Z,10.26
2023-04-25T03:54:12.117Z,10.22
2023-04-25T03:56:52.995Z,10.22
2023-04-25T03:59:21.544Z,10.26
2023-04-25T04:01:49.618Z,10.31
2023-04-25T04:04:18.121Z,10.34
2023-04-25T04:06:47.239Z,10.37
2023-04-25T04:09:27.028Z,10.40
2023-04-25T04:11:56.123Z,10.47
2023-04-25T04:14:24.126Z,10.49
2023-04-25T04:16:53.436Z,10.51
2023-04-25T04:19:21.729Z,10.56
2023-04-25T04:21:58.400Z,10.55
2023-04-25T04:24:26.540Z,10.57
2023-04-25T04:26:59.963Z,10.50
2023-04-25T04:29:47.307Z,10.50
2023-04-25T04:32:34.452Z,10.59
2023-04-25T04:35:04.742Z,10.63
2023-04-25T04:37:33.930Z,10.67
2023-04-25T04:40:06.317Z,10.71
2023-04-25T04:42:49.192Z,10.73
2023-04-25T04:45:35.085Z,10.73
2023-04-25T04:48:13.566Z,10.72
2023-04-25T04:51:00.253Z,10.74
2023-04-25T04:53:46.854Z,10.70
2023-04-25T04:56:15.649Z,10.69
2023-04-25T04:58:56.286Z,10.71
2023-04-25T05:01:33.225Z,10.76
2023-04-25T05:04:21.911Z,10.88
2023-04-25T05:07:16.544Z,10.85
2023-04-25T05:10:12.426Z,10.88
2023-04-25T05:13:03.899Z,10.87
2023-04-25T05:16:11.588Z,10.91
2023-04-25T05:18:53.291Z,10.95
2023-04-25T05:21:44.704Z,11.00
2023-04-25T05:24:38.985Z,11.04
2023-04-25T05:27:29.923Z,11.11
2023-04-25T05:30:04.214Z,11.17
2023-04-25T05:32:38.480Z,11.18
2023-04-25T05:35:07.892Z,11.28
2023-04-25T05:37:43.705Z,11.35
2023-04-25T05:40:14.961Z,11.38
2023-04-25T05:42:48.618Z,11.44
2023-04-25T05:45:47.797Z,11.50
2023-04-25T05:48:47.088Z,11.55
2023-04-25T05:51:34.111Z,11.59
2023-04-25T05:54:19.087Z,11.59
2023-04-25T05:56:47.504Z,11.68
2023-04-25T05:59:17.503Z,11.62
2023-04-25T06:01:45.739Z,11.75
2023-04-25T06:04:14.301Z,11.88
2023-04-25T06:06:43.850Z,11.97
2023-04-25T06:09:14.294Z,12.03
2023-04-25T06:11:43.909Z,11.99
2023-04-25T06:14:12.259Z,11.99
2023-04-25T06:16:44.029Z,11.97
2023-04-25T06:19:12.664Z,11.94
2023-04-25T06:21:41.009Z,11.92
2023-04-25T06:24:11.275Z,11.97
2023-04-25T06:26:39.486Z,11.96
2023-04-25T06:29:08.044Z,11.98
2023-04-25T06:31:37.104Z,12.02
2023-04-25T06:34:05.309Z,12.14
2023-04-25T06:36:34.833Z,12.20
2023-04-25T06:39:06.558Z,12.16
2023-04-25T06:41:35.175Z,12.25
2023-04-25T06:44:07.504Z,12.20
2023-04-25T06:46:42.291Z,12.21
2023-04-25T06:49:10.750Z,12.30
2023-04-25T06:51:39.181Z,12.31
2023-04-25T06:54:08.269Z,12.15
2023-04-25T06:56:42.859Z,12.10
2023-04-25T06:59:16.444Z,12.17
2023-04-25T07:01:46.907Z,12.21
2023-04-25T07:04:23.894Z,12.28
2023-04-25T07:06:56.115Z,12.37
2023-04-25T07:09:35.731Z,12.41
2023-04-25T07:12:06.882Z,12.38
2023-04-25T07:14:35.666Z,12.47
2023-04-25T07:17:04.427Z,12.57
2023-04-25T07:19:35.033Z,12.58
2023-04-25T07:22:08.636Z,12.50
2023-04-25T07:24:41.605Z,12.49
2023-04-25T07:27:12.207Z,12.45
2023-04-25T07:29:55.289Z,12.58
2023-04-25T07:32:25.196Z,12.73
2023-04-25T07:34:58.114Z,12.78
2023-04-25T07:37:30.197Z,12.86
2023-04-25T07:40:10.933Z,12.94
2023-04-25T07:42:43.107Z,12.91
2023-04-25T07:45:11.984Z,12.84
2023-04-25T07:47:41.300Z,12.82
2023-04-25T07:50:13.342Z,12.91
2023-04-25T07:52:43.733Z,12.95
2023-04-25T07:55:44.731Z,13.05
2023-04-25T07:58:23.086Z,13.03
2023-04-25T08:00:59.303Z,13.08
2023-04-25T08:03:36.508Z,13.17
2023-04-25T08:06:25.091Z,13.21
2023-04-25T08:09:11.155Z,13.17
2023-04-25T08:11:41.565Z,13.20
2023-04-25T08:14:12.608Z,13.36
2023-04-25T08:16:41.410Z,13.57
2023-04-25T08:19:10.727Z,13.72
2023-04-25T08:21:40.030Z,13.85
2023-04-25T08:24:16.156Z,13.93
2023-04-25T08:26:44.846Z,13.89
2023-04-25T08:29:17.441Z,13.85
2023-04-25T08:31:48.030Z,14.03
2023-04-25T08:34:18.281Z,14.24
2023-04-25T08:36:52.874Z,14.41
2023-04-25T08:39:32.759Z,14.59
2023-04-25T08:42:40.821Z,14.70
2023-04-25T08:45:11.886Z,14.63
2023-04-25T08:47:49.792Z,14.74
2023-04-25T08:50:20.429Z,14.99
2023-04-25T08:52:54.070Z,15.07
2023-04-25T08:55:24.833Z,15.09
2023-04-25T08:57:56.344Z,14.87
2023-04-25T09:00:28.948Z,15.23
2023-04-25T09:03:02.235Z,15.36
2023-04-25T09:05:35.447Z,15.43
2023-04-25T09:08:04.337Z,15.67
2023-04-25T09:13:16.600Z,15.82
2023-04-25T09:16:12.905Z,15.90
2023-04-25T09:18:54.815Z,15.98
2023-04-25T09:21:25.424Z,16.08
2023-04-25T09:23:53.849Z,16.07
2023-04-25T09:26:25.491Z,15.91
2023-04-25T09:29:11.080Z,15.78
2023-04-25T09:31:42.005Z,15.58
2023-04-25T09:34:16.666Z,15.54
2023-04-25T09:36:47.931Z,15.63
2023-04-25T09:39:57.099Z,15.49
2023-04-25T09:42:28.072Z,15.49
2023-04-25T09:44:57.461Z,15.52
2023-04-25T09:47:27.942Z,15.62
2023-04-25T09:49:56.796Z,15.64
2023-04-25T09:52:26.494Z,15.70
2023-04-25T09:55:12.940Z,15.62
2023-04-25T09:57:43.926Z,15.62
2023-04-25T10:00:14.048Z,15.81
2023-04-25T10:02:55.673Z,15.87
2023-04-25T10:05:54.571Z,15.73
2023-04-25T10:08:24.456Z,15.85
2023-04-25T10:10:52.547Z,15.91
2023-04-25T10:13:21.982Z,16.01
2023-04-25T10:15:50.684Z,16.22
2023-04-25T10:18:21.009Z,16.31
2023-04-25T10:20:49.566Z,16.34
2023-04-25T10:23:22.835Z,16.29
2023-04-25T10:25:55.235Z,16.40
2023-04-25T10:28:24.053Z,16.26
2023-04-25T10:31:09.681Z,16.31
2023-04-25T10:33:39.792Z,16.35
2023-04-25T10:36:16.040Z,16.43
2023-04-25T10:38:46.398Z,16.28
2023-04-25T10:41:15.490Z,16.26
2023-04-25T10:43:52.147Z,16.16
2023-04-25T10:46:25.427Z,16.23
2023-04-25T10:48:55.615Z,16.02
2023-04-25T10:54:23.468Z,15.98
2023-04-25T10:57:12.895Z,15.96
2023-04-25T10:59:43.374Z,16.01
2023-04-25T11:02:16.103Z,15.95
2023-04-25T11:04:56.416Z,15.86
2023-04-25T11:08:06.413Z,15.71
2023-04-25T11:10:39.458Z,15.53
2023-04-25T11:13:09.604Z,15.43
2023-04-25T11:15:41.755Z,15.17
2023-04-25T11:18:19.971Z,15.03
2023-04-25T11:20:55.374Z,14.82
2023-04-25T11:23:31.765Z,14.71
2023-04-25T11:26:02.743Z,14.54
2023-04-25T11:28:34.544Z,14.38
2023-04-25T11:31:08.984Z,14.20
2023-04-25T11:33:37.417Z,14.01
2023-04-25T11:36:07.147Z,13.95
2023-04-25T11:38:36.866Z,13.60
2023-04-25T11:41:07.666Z,13.32
2023-04-25T11:43:37.863Z,13.02
2023-04-25T11:46:11.125Z,12.85
2023-04-25T11:48:43.185Z,12.71
2023-04-25T11:51:14.872Z,12.56
2023-04-25T11:53:46.799Z,12.60
2023-04-25T11:56:15.400Z,12.62
2023-04-25T11:59:06.735Z,12.68
2023-04-25T12:01:37.684Z,12.86
2023-04-25T12:04:15.085Z,13.05
2023-04-25T12:06:45.166Z,13.20
2023-04-25T12:09:36.639Z,13.39
2023-04-25T12:12:05.180Z,13.48
2023-04-25T12:14:37.190Z,13.56
2023-04-25T12:17:08.971Z,13.74
2023-04-25T12:19:42.570Z,13.99
2023-04-25T12:22:22.560Z,14.01
2023-04-25T12:24:51.115Z,14.13
2023-04-25T12:27:20.242Z,14.30
2023-04-25T12:30:08.187Z,14.35
2023-04-25T12:32:37.015Z,14.54
2023-04-25T12:35:07.687Z,14.68
2023-04-25T12:37:35.790Z,14.67
2023-04-25T12:40:05.436Z,14.71
2023-04-25T12:42:33.656Z,14.83
2023-04-25T12:45:01.749Z,14.70
2023-04-25T12:49:55.245Z,14.52
2023-04-25T12:52:24.721Z,14.54
2023-04-25T12:54:53.267Z,14.67
2023-04-25T12:57:23.278Z,14.73
2023-04-25T12:59:52.293Z,14.58
2023-04-25T13:02:21.455Z,14.64
2023-04-25T13:04:50.387Z,14.76
2023-04-25T13:07:20.508Z,14.65
2023-04-25T13:09:48.760Z,14.53
2023-04-25T13:12:19.267Z,14.55
2023-04-25T13:14:47.580Z,14.47
2023-04-25T13:17:15.918Z,14.50
2023-04-25T13:19:44.348Z,14.40
2023-04-25T13:22:18.312Z,14.33
2023-04-25T13:24:46.586Z,14.22
2023-04-25T13:27:14.748Z,14.25
2023-04-25T13:29:42.865Z,14.22
2023-04-25T13:32:11.783Z,14.09
2023-04-25T13:34:40.075Z,13.94
2023-04-25T13:37:12.842Z,13.89
2023-04-25T13:39:46.175Z,13.82
2023-04-25T13:42:17.213Z,13.65
2023-04-25T13:44:45.441Z,13.57
2023-04-25T13:47:14.171Z,13.51
2023-04-25T13:49:42.503Z,13.39
2023-04-25T13:52:10.885Z,13.28
2023-04-25T13:54:39.812Z,13.12
2023-04-25T13:57:14.849Z,12.88
2023-04-25T13:59:52.773Z,12.68
2023-04-25T14:02:22.502Z,12.45
2023-04-25T14:04:51.389Z,12.24
2023-04-25T14:07:22.671Z,12.01
2023-04-25T14:09:51.408Z,11.83
2023-04-25T14:12:22.172Z,11.59
2023-04-25T14:14:50.498Z,11.48
2023-04-25T14:17:21.667Z,11.38
2023-04-25T14:19:51.165Z,11.31
2023-04-25T14:22:20.361Z,11.19
2023-04-25T14:24:48.452Z,11.09
2023-04-25T14:27:16.725Z,11.04
2023-04-25T14:29:45.172Z,11.04
2023-04-25T14:32:13.260Z,11.03
2023-04-25T14:34:41.476Z,11.01
2023-04-25T14:37:11.068Z,10.97
2023-04-25T14:39:39.262Z,10.94
2023-04-25T14:42:07.567Z,10.86
2023-04-25T14:44:35.857Z,10.77
2023-04-25T14:47:04.080Z,10.74
2023-04-25T14:49:33.441Z,10.72
2023-04-25T14:52:02.201Z,10.72
2023-04-25T14:54:30.374Z,10.70
2023-04-25T14:56:58.838Z,10.69
2023-04-25T14:59:28.286Z,10.67
2023-04-25T15:01:59.495Z,10.68
2023-04-25T15:04:28.173Z,10.69
2023-04-25T15:06:57.055Z,10.66
2023-04-25T15:09:25.980Z,10.68
2023-04-25T15:11:55.729Z,10.68
2023-04-25T15:14:23.914Z,10.66
2023-04-25T15:16:52.237Z,10.62
2023-04-25T15:19:20.474Z,10.57
2023-04-25T15:21:49.368Z,10.55
2023-04-25T15:24:21.666Z,10.50
2023-04-25T15:26:51.649Z,10.44
2023-04-25T15:29:20.435Z,10.40
2023-04-25T15:31:48.730Z,10.37
2023-04-25T15:34:18.403Z,10.33
2023-04-25T15:36:49.223Z,10.27
2023-04-25T15:39:18.780Z,10.26
2023-04-25T15:41:47.890Z,10.27
2023-04-25T15:44:16.123Z,10.29
2023-04-25T15:46:46.151Z,10.28
2023-04-25T15:49:18.992Z,10.24
2023-04-25T15:51:53.281Z,10.27
2023-04-25T15:54:29.609Z,10.27
2023-04-25T15:56:57.940Z,10.29
2023-04-25T15:59:26.372Z,10.30
2023-04-25T16:01:54.681Z,10.33
2023-04-25T16:04:25.258Z,10.32
2023-04-25T16:06:53.552Z,10.34
2023-04-25T16:12:08.942Z,10.36
2023-04-25T16:14:37.515Z,10.40
2023-04-25T16:17:05.885Z,10.33
2023-04-25T16:19:34.231Z,10.29
2023-04-25T16:22:02.787Z,10.31
2023-04-25T16:24:30.933Z,10.30
2023-04-25T16:26:59.775Z,10.26
2023-04-25T16:29:28.251Z,10.28
2023-04-25T16:31:57.350Z,10.28
2023-04-25T16:34:27.865Z,10.26
2023-04-25T16:36:57.670Z,10.25
2023-04-25T16:39:28.789Z,10.29
2023-04-25T16:41:56.831Z,10.29
2023-04-25T16:44:24.886Z,10.26
2023-04-25T16:46:53.027Z,10.26
2023-04-25T16:49:21.278Z,10.25
2023-04-25T16:51:49.495Z,10.25
2023-04-25T16:54:17.836Z,10.26
2023-04-25T16:56:46.013Z,10.24
2023-04-25T16:59:14.114Z,10.24
2023-04-25T17:01:42.685Z,10.25
2023-04-25T17:04:11.215Z,10.25
2023-04-25T17:06:40.194Z,10.14
2023-04-25T17:09:08.493Z,10.04
2023-04-25T17:11:37.126Z,9.95
2023-04-25T17:14:06.140Z,9.90
2023-04-25T17:16:36.688Z,9.85
2023-04-25T17:19:06.504Z,9.74
2023-04-25T17:21:34.684Z,9.71
2023-04-25T17:24:06.177Z,9.71
2023-04-25T17:26:34.387Z,9.68
2023-04-25T17:29:02.823Z,9.64
2023-04-25T17:31:31.351Z,9.66
2023-04-25T17:33:59.982Z,9.62
2023-04-25T17:36:28.240Z,9.62
2023-04-25T17:38:56.661Z,9.61
2023-04-25T17:41:26.608Z,9.58
2023-04-25T17:43:54.642Z,9.53
2023-04-25T17:46:22.907Z,9.54
2023-04-25T17:48:52.924Z,9.54
2023-04-25T17:51:21.478Z,9.50
2023-04-25T17:53:49.530Z,9.50
2023-04-25T17:56:26.551Z,9.49
2023-04-25T17:58:56.121Z,9.46
2023-04-25T18:01:27.649Z,9.45
2023-04-25T18:03:56.602Z,9.51
2023-04-25T18:06:25.007Z,9.48
2023-04-25T18:08:53.465Z,9.43
2023-04-25T18:11:22.011Z,9.49
2023-04-25T18:13:50.471Z,9.45
2023-04-25T18:16:22.390Z,9.37
2023-04-25T18:18:54.004Z,9.40
2023-04-25T18:21:24.892Z,9.37
2023-04-25T18:23:53.226Z,9.38
2023-04-25T18:26:23.370Z,9.36
2023-04-25T18:28:51.997Z,9.30
2023-04-25T18:31:24.979Z,9.27
2023-04-25T18:33:53.499Z,9.19
2023-04-25T18:36:22.413Z,9.18
2023-04-25T18:38:56.501Z,9.17
2023-04-25T18:41:51.911Z,9.21
2023-04-25T18:44:19.740Z,9.27
2023-04-25T18:46:47.982Z,9.25
2023-04-25T18:49:16.036Z,9.26
2023-04-25T18:51:45.466Z,9.25
2023-04-25T18:54:13.968Z,9.26
2023-04-25T18:56:42.263Z,9.23
2023-04-25T18:59:11.220Z,9.26
2023-04-25T19:01:40.000Z,9.23
2023-04-25T19:04:09.799Z,9.17
2023-04-25T19:06:38.234Z,9.17
2023-04-25T19:09:07.863Z,9.18
2023-04-25T19:11:36.200Z,9.19
2023-04-25T19:14:04.270Z,9.22
2023-04-25T19:16:39.234Z,9.22
2023-04-25T19:19:09.228Z,9.23
2023-04-25T19:21:37.447Z,9.22
2023-04-25T19:24:09.020Z,9.20
2023-04-25T19:26:37.464Z,9.20
2023-04-25T19:29:09.821Z,9.20
2023-04-25T19:31:39.650Z,9.19
2023-04-25T19:34:09.289Z,9.13
2023-04-25T19:36:42.394Z,9.13
2023-04-25T19:39:11.028Z,9.13
2023-04-25T19:41:39.306Z,9.15
2023-04-25T19:44:09.284Z,9.04
2023-04-25T19:46:37.652Z,9.03
2023-04-25T19:49:07.821Z,9.01
2023-04-25T19:51:40.861Z,8.94
2023-04-25T19:54:08.981Z,8.91
2023-04-25T19:56:37.072Z,8.91
2023-04-25T19:59:05.289Z,8.91
2023-04-25T20:01:33.519Z,8.84
2023-04-25T20:04:01.892Z,8.83
2023-04-25T20:06:32.393Z,8.84
2023-04-25T20:09:01.546Z,8.78
2023-04-25T20:11:29.534Z,8.78
2023-04-25T20:13:57.885Z,8.73
2023-04-25T20:16:26.123Z,8.79
2023-04-25T20:18:55.416Z,8.76
2023-04-25T20:21:23.896Z,8.67
2023-04-25T20:23:53.376Z,8.69
2023-04-25T20:26:24.910Z,8.66
2023-04-25T20:28:53.281Z,8.61
2023-04-25T20:31:23.357Z,8.56
2023-04-25T20:33:51.628Z,8.59
2023-04-25T20:36:19.904Z,8.57
2023-04-25T20:38:48.099Z,8.53
2023-04-25T20:41:16.276Z,8.42
2023-04-25T20:43:44.562Z,8.40
2023-04-25T20:46:13.166Z,8.26
2023-04-25T20:48:41.319Z,8.20
2023-04-25T20:51:09.476Z,8.15
2023-04-25T20:53:37.888Z,8.05
2023-04-25T20:56:06.718Z,8.03
2023-04-25T20:58:34.863Z,7.99
2023-04-25T21:01:04.360Z,7.92
2023-04-25T21:03:33.813Z,7.82
2023-04-25T21:06:02.235Z,7.78
2023-04-25T21:08:30.419Z,7.74
2023-04-25T21:10:58.500Z,7.65
2023-04-25T21:13:29.168Z,7.61
2023-04-25T21:15:58.468Z,7.58
2023-04-25T21:18:26.488Z,7.51
2023-04-25T21:20:54.629Z,7.49
2023-04-25T21:23:22.699Z,7.46
2023-04-25T21:25:52.028Z,7.43
2023-04-25T21:28:21.055Z,7.29
2023-04-25T21:30:49.352Z,7.27
2023-04-25T21:33:17.508Z,7.24
2023-04-25T21:35:46.399Z,7.19
2023-04-25T21:38:15.685Z,7.13
2023-04-25T21:40:46.046Z,7.21
2023-04-25T21:43:14.154Z,7.18
2023-04-25T21:46:05.760Z,7.08
2023-04-25T21:48:31.783Z,7.05
2023-04-25T21:51:00.254Z,7.06
2023-04-25T21:53:28.268Z,7.06
2023-04-25T21:55:56.343Z,7.03
2023-04-25T21:58:24.871Z,7.02
2023-04-25T22:00:54.125Z,7.00
2023-04-25T22:03:24.403Z,6.98
2023-04-25T22:05:52.541Z,7.00
2023-04-25T22:08:20.807Z,6.97
2023-04-25T22:10:49.517Z,6.92
2023-04-25T22:13:17.522Z,6.99
2023-04-25T22:15:46.068Z,6.96
2023-04-25T22:18:14.492Z,6.95
2023-04-25T22:20:44.645Z,6.96
2023-04-25T22:23:12.690Z,6.95
2023-04-25T22:25:42.142Z,6.96
2023-04-25T22:28:10.775Z,7.01
2023-04-25T22:30:41.366Z,6.95
2023-04-25T22:33:09.537Z,6.96
2023-04-25T22:35:37.585Z,6.90
2023-04-25T22:38:05.543Z,6.91
2023-04-25T22:40:34.607Z,6.88
2023-04-25T22:43:02.616Z,6.91
2023-04-25T22:45:30.715Z,6.88
2023-04-25T22:47:58.853Z,6.92
2023-04-25T22:50:27.119Z,6.89
2023-04-25T22:52:55.229Z,6.90
2023-04-25T22:55:26.560Z,6.84
2023-04-25T22:57:54.888Z,6.84
2023-04-25T23:00:26.164Z,6.78
2023-04-25T23:02:54.445Z,6.72
2023-04-25T23:05:25.898Z,6.80
2023-04-25T23:07:54.769Z,6.72
2023-04-25T23:10:23.309Z,6.81
2023-04-25T23:12:51.570Z,6.73
2023-04-25T23:15:20.889Z,6.72
2023-04-25T23:17:48.979Z,6.76
2023-04-25T23:20:17.342Z,6.69
2023-04-25T23:22:45.341Z,6.70
2023-04-25T23:25:13.647Z,6.68
2023-04-25T23:27:41.825Z,6.64
2023-04-25T23:30:11.939Z,6.71
2023-04-25T23:32:40.660Z,6.69
2023-04-25T23:35:12.895Z,6.55
2023-04-25T23:37:40.914Z,6.68
2023-04-25T23:40:10.164Z,6.65
2023-04-25T23:42:40.053Z,6.62
2023-04-25T23:45:09.146Z,6.61
2023-04-25T23:47:37.606Z,6.55
2023-04-25T23:50:08.305Z,6.61
2023-04-25T23:52:36.377Z,6.66
2023-04-25T23:55:05.669Z,6.60
2023-04-25T23:57:33.807Z,6.65
